sensor_id;sensor_type;location;lat;lon;timestamp;temperature;humidity
3360;DHT22;1693;49.602;11.046;2022-11-02T00:01:20;9.20;99.90
3360;DHT22;1693;49.602;11.046;2022-11-02T00:03:49;9.20;99.90
3360;DHT22;1693;49.602;11.046;2022-11-02T00:06:16;9.30;99.90
3360;DHT22;1693;49.602;11.046;2022-11-02T00:08:46;9.30;99.90
3360;DHT22;1693;49.602;11.046;2022-11-02T00:11:12;9.30;99.90
3360;DHT22;1693;49.602;11.046;2022-11-02T00:13:39;9.20;99.90
3360;DHT22;1693;49.602;11.046;2022-11-02T00:16:09;9.30;99.90
3360;DHT22;1693;49.602;11.046;2022-11-02T00:18:39;9.40;99.90
3360;DHT22;1693;49.602;11.046;2022-11-02T00:21:08;9.40;99.90
3360;DHT22;1693;49.602;11.046;2022-11-02T00:23:35;9.40;99.90
3360;DHT22;1693;49.602;11.046;2022-11-02T00:26:03;9.40;99.90
3360;DHT22;1693;49.602;11.046;2022-11-02T00:28:33;9.40;99.90
3360;DHT22;1693;49.602;11.046;2022-11-02T00:31:01;9.40;99.90
3360;DHT22;1693;49.602;11.046;2022-11-02T00:33:28;9.50;99.90
3360;DHT22;1693;49.602;11.046;2022-11-02T00:35:55;9.60;99.90
3360;DHT22;1693;49.602;11.046;2022-11-02T00:38:22;9.60;99.90
3360;DHT22;1693;49.602;11.046;2022-11-02T00:40:49;9.60;99.90
3360;DHT22;1693;49.602;11.046;2022-11-02T00:43:18;9.60;99.90
3360;DHT22;1693;49.602;11.046;2022-11-02T00:45:46;9.60;99.90
3360;DHT22;1693;49.602;11.046;2022-11-02T00:48:13;9.60;99.90
3360;DHT22;1693;49.602;11.046;2022-11-02T00:50:40;9.60;99.90
3360;DHT22;1693;49.602;11.046;2022-11-02T00:53:07;9.70;99.90
3360;DHT22;1693;49.602;11.046;2022-11-02T00:55:35;9.70;99.90
3360;DHT22;1693;49.602;11.046;2022-11-02T00:58:02;9.80;99.90
3360;DHT22;1693;49.602;11.046;2022-11-02T01:00:31;9.80;99.90
3360;DHT22;1693;49.602;11.046;2022-11-02T01:02:59;9.80;99.90
3360;DHT22;1693;49.602;11.046;2022-11-02T01:05:26;9.80;99.90
3360;DHT22;1693;49.602;11.046;2022-11-02T01:07:53;9.80;99.90
3360;DHT22;1693;49.602;11.046;2022-11-02T01:10:20;9.90;99.90
3360;DHT22;1693;49.602;11.046;2022-11-02T01:12:48;9.80;99.90
3360;DHT22;1693;49.602;11.046;2022-11-02T01:15:15;9.80;99.90
3360;DHT22;1693;49.602;11.046;2022-11-02T01:17:44;9.90;99.90
3360;DHT22;1693;49.602;11.046;2022-11-02T01:20:11;9.90;99.90
3360;DHT22;1693;49.602;11.046;2022-11-02T01:22:38;10.00;99.90
3360;DHT22;1693;49.602;11.046;2022-11-02T01:25:06;10.00;99.90
3360;DHT22;1693;49.602;11.046;2022-11-02T01:27:33;10.00;99.90
3360;DHT22;1693;49.602;11.046;2022-11-02T01:30:02;10.00;99.90
3360;DHT22;1693;49.602;11.046;2022-11-02T01:32:29;9.90;99.90
3360;DHT22;1693;49.602;11.046;2022-11-02T01:34:57;9.80;99.90
3360;DHT22;1693;49.602;11.046;2022-11-02T01:37:24;9.90;99.90
3360;DHT22;1693;49.602;11.046;2022-11-02T01:39:52;9.90;99.90
3360;DHT22;1693;49.602;11.046;2022-11-02T01:42:21;10.00;99.90
3360;DHT22;1693;49.602;11.046;2022-11-02T01:44:50;10.00;99.90
3360;DHT22;1693;49.602;11.046;2022-11-02T01:47:20;10.00;99.90
3360;DHT22;1693;49.602;11.046;2022-11-02T01:49:50;9.90;99.90
3360;DHT22;1693;49.602;11.046;2022-11-02T01:52:22;10.00;99.90
3360;DHT22;1693;49.602;11.046;2022-11-02T01:54:55;10.00;99.90
3360;DHT22;1693;49.602;11.046;2022-11-02T01:57:26;10.00;99.90
3360;DHT22;1693;49.602;11.046;2022-11-02T01:59:58;10.00;99.90
3360;DHT22;1693;49.602;11.046;2022-11-02T02:02:27;10.00;99.90
3360;DHT22;1693;49.602;11.046;2022-11-02T02:04:58;9.90;99.90
3360;DHT22;1693;49.602;11.046;2022-11-02T02:07:30;9.90;99.90
3360;DHT22;1693;49.602;11.046;2022-11-02T02:09:59;9.90;99.90
3360;DHT22;1693;49.602;11.046;2022-11-02T02:12:27;9.90;99.90
3360;DHT22;1693;49.602;11.046;2022-11-02T02:14:55;9.90;99.90
3360;DHT22;1693;49.602;11.046;2022-11-02T02:17:31;9.80;99.90
3360;DHT22;1693;49.602;11.046;2022-11-02T02:20:05;9.70;99.90
3360;DHT22;1693;49.602;11.046;2022-11-02T02:26:07;9.70;99.90
3360;DHT22;1693;49.602;11.046;2022-11-02T02:28:43;9.60;99.90
3360;DHT22;1693;49.602;11.046;2022-11-02T02:31:16;9.60;99.90
3360;DHT22;1693;49.602;11.046;2022-11-02T02:33:48;9.50;99.90
3360;DHT22;1693;49.602;11.046;2022-11-02T02:36:23;9.40;99.90
3360;DHT22;1693;49.602;11.046;2022-11-02T02:38:56;9.40;99.90
3360;DHT22;1693;49.602;11.046;2022-11-02T02:41:35;9.30;99.90
3360;DHT22;1693;49.602;11.046;2022-11-02T02:44:07;9.30;99.90
3360;DHT22;1693;49.602;11.046;2022-11-02T02:46:39;9.20;99.90
3360;DHT22;1693;49.602;11.046;2022-11-02T02:49:10;9.10;99.90
3360;DHT22;1693;49.602;11.046;2022-11-02T02:51:39;9.10;99.90
3360;DHT22;1693;49.602;11.046;2022-11-02T02:54:09;9.00;99.90
3360;DHT22;1693;49.602;11.046;2022-11-02T02:56:40;8.90;99.90
3360;DHT22;1693;49.602;11.046;2022-11-02T02:59:15;8.80;99.90
3360;DHT22;1693;49.602;11.046;2022-11-02T03:01:47;8.80;99.90
3360;DHT22;1693;49.602;11.046;2022-11-02T03:04:14;8.70;99.90
3360;DHT22;1693;49.602;11.046;2022-11-02T03:06:45;8.60;99.90
3360;DHT22;1693;49.602;11.046;2022-11-02T03:09:18;8.60;99.90
3360;DHT22;1693;49.602;11.046;2022-11-02T03:11:54;8.60;99.90
3360;DHT22;1693;49.602;11.046;2022-11-02T03:14:36;8.60;99.90
3360;DHT22;1693;49.602;11.046;2022-11-02T03:17:13;8.50;99.90
3360;DHT22;1693;49.602;11.046;2022-11-02T03:19:48;8.50;99.90
3360;DHT22;1693;49.602;11.046;2022-11-02T03:22:29;8.40;99.90
3360;DHT22;1693;49.602;11.046;2022-11-02T03:25:05;8.30;99.90
3360;DHT22;1693;49.602;11.046;2022-11-02T03:27:37;8.20;99.90
3360;DHT22;1693;49.602;11.046;2022-11-02T03:30:10;8.20;99.90
3360;DHT22;1693;49.602;11.046;2022-11-02T03:32:43;8.10;99.90
3360;DHT22;1693;49.602;11.046;2022-11-02T03:35:18;8.00;99.90
3360;DHT22;1693;49.602;11.046;2022-11-02T03:37:50;8.00;99.90
3360;DHT22;1693;49.602;11.046;2022-11-02T03:40:21;8.00;99.90
3360;DHT22;1693;49.602;11.046;2022-11-02T03:42:51;8.00;99.90
3360;DHT22;1693;49.602;11.046;2022-11-02T03:45:22;8.00;99.90
3360;DHT22;1693;49.602;11.046;2022-11-02T03:47:54;8.00;99.90
3360;DHT22;1693;49.602;11.046;2022-11-02T03:50:22;8.10;99.90
3360;DHT22;1693;49.602;11.046;2022-11-02T03:52:55;8.10;99.90
3360;DHT22;1693;49.602;11.046;2022-11-02T03:55:28;8.20;99.90
3360;DHT22;1693;49.602;11.046;2022-11-02T03:57:57;8.10;99.90
3360;DHT22;1693;49.602;11.046;2022-11-02T04:00:28;8.10;99.90
3360;DHT22;1693;49.602;11.046;2022-11-02T04:03:00;8.10;99.90
3360;DHT22;1693;49.602;11.046;2022-11-02T04:05:29;8.10;99.90
3360;DHT22;1693;49.602;11.046;2022-11-02T04:07:57;8.10;99.90
3360;DHT22;1693;49.602;11.046;2022-11-02T04:10:42;8.10;99.90
3360;DHT22;1693;49.602;11.046;2022-11-02T04:13:23;8.00;99.90
3360;DHT22;1693;49.602;11.046;2022-11-02T04:16:09;8.00;99.90
3360;DHT22;1693;49.602;11.046;2022-11-02T04:18:36;8.00;99.90
3360;DHT22;1693;49.602;11.046;2022-11-02T04:21:21;7.90;99.90
3360;DHT22;1693;49.602;11.046;2022-11-02T04:23:48;7.90;99.90
3360;DHT22;1693;49.602;11.046;2022-11-02T04:26:32;8.00;99.90
3360;DHT22;1693;49.602;11.046;2022-11-02T04:28:59;7.90;99.90
3360;DHT22;1693;49.602;11.046;2022-11-02T04:31:28;7.90;99.90
3360;DHT22;1693;49.602;11.046;2022-11-02T04:33:55;7.90;99.90
3360;DHT22;1693;49.602;11.046;2022-11-02T04:36:23;7.80;99.90
3360;DHT22;1693;49.602;11.046;2022-11-02T04:38:50;7.80;99.90
3360;DHT22;1693;49.602;11.046;2022-11-02T04:41:17;7.90;99.90
3360;DHT22;1693;49.602;11.046;2022-11-02T04:44:02;7.90;99.90
3360;DHT22;1693;49.602;11.046;2022-11-02T04:46:33;7.90;99.90
3360;DHT22;1693;49.602;11.046;2022-11-02T04:49:02;7.90;99.90
3360;DHT22;1693;49.602;11.046;2022-11-02T04:51:29;7.80;99.90
3360;DHT22;1693;49.602;11.046;2022-11-02T04:53:57;7.80;99.90
3360;DHT22;1693;49.602;11.046;2022-11-02T04:56:25;7.80;99.90
3360;DHT22;1693;49.602;11.046;2022-11-02T04:58:54;7.90;99.90
3360;DHT22;1693;49.602;11.046;2022-11-02T05:01:22;7.90;99.90
3360;DHT22;1693;49.602;11.046;2022-11-02T05:03:51;7.80;99.90
3360;DHT22;1693;49.602;11.046;2022-11-02T05:06:21;7.70;99.90
3360;DHT22;1693;49.602;11.046;2022-11-02T05:08:48;7.80;99.90
3360;DHT22;1693;49.602;11.046;2022-11-02T05:11:15;7.80;99.90
3360;DHT22;1693;49.602;11.046;2022-11-02T05:13:42;7.80;99.90
3360;DHT22;1693;49.602;11.046;2022-11-02T05:16:12;7.70;99.90
3360;DHT22;1693;49.602;11.046;2022-11-02T05:18:39;7.70;99.90
3360;DHT22;1693;49.602;11.046;2022-11-02T05:21:09;7.70;99.90
3360;DHT22;1693;49.602;11.046;2022-11-02T05:23:37;7.80;99.90
3360;DHT22;1693;49.602;11.046;2022-11-02T05:26:05;7.80;99.90
3360;DHT22;1693;49.602;11.046;2022-11-02T05:28:32;7.80;99.90
3360;DHT22;1693;49.602;11.046;2022-11-02T05:31:00;7.80;99.90
3360;DHT22;1693;49.602;11.046;2022-11-02T05:33:29;7.90;99.90
3360;DHT22;1693;49.602;11.046;2022-11-02T05:35:58;7.90;99.90
3360;DHT22;1693;49.602;11.046;2022-11-02T05:38:27;7.90;99.90
3360;DHT22;1693;49.602;11.046;2022-11-02T05:40:54;8.00;99.90
3360;DHT22;1693;49.602;11.046;2022-11-02T05:43:22;7.90;99.90
3360;DHT22;1693;49.602;11.046;2022-11-02T05:45:53;7.80;99.90
3360;DHT22;1693;49.602;11.046;2022-11-02T05:48:22;7.90;99.90
3360;DHT22;1693;49.602;11.046;2022-11-02T05:50:54;7.80;99.90
3360;DHT22;1693;49.602;11.046;2022-11-02T05:53:21;7.80;99.90
3360;DHT22;1693;49.602;11.046;2022-11-02T05:55:50;7.70;99.90
3360;DHT22;1693;49.602;11.046;2022-11-02T05:58:17;7.70;99.90
3360;DHT22;1693;49.602;11.046;2022-11-02T06:00:44;7.70;99.90
3360;DHT22;1693;49.602;11.046;2022-11-02T06:03:11;7.60;99.90
3360;DHT22;1693;49.602;11.046;2022-11-02T06:05:38;7.60;99.90
3360;DHT22;1693;49.602;11.046;2022-11-02T06:08:05;7.60;99.90
3360;DHT22;1693;49.602;11.046;2022-11-02T06:10:33;7.60;99.90
3360;DHT22;1693;49.602;11.046;2022-11-02T06:13:02;7.50;99.90
3360;DHT22;1693;49.602;11.046;2022-11-02T06:15:30;7.50;99.90
3360;DHT22;1693;49.602;11.046;2022-11-02T06:17:58;7.40;99.90
3360;DHT22;1693;49.602;11.046;2022-11-02T06:20:26;7.40;99.90
3360;DHT22;1693;49.602;11.046;2022-11-02T06:22:53;7.40;99.90
3360;DHT22;1693;49.602;11.046;2022-11-02T06:25:20;7.40;99.90
3360;DHT22;1693;49.602;11.046;2022-11-02T06:27:50;7.50;99.90
3360;DHT22;1693;49.602;11.046;2022-11-02T06:30:21;7.40;99.90
3360;DHT22;1693;49.602;11.046;2022-11-02T06:32:49;7.50;99.90
3360;DHT22;1693;49.602;11.046;2022-11-02T06:35:18;7.50;99.90
3360;DHT22;1693;49.602;11.046;2022-11-02T06:37:45;7.60;99.90
3360;DHT22;1693;49.602;11.046;2022-11-02T06:40:14;7.50;99.90
3360;DHT22;1693;49.602;11.046;2022-11-02T06:42:41;7.60;99.90
3360;DHT22;1693;49.602;11.046;2022-11-02T06:45:10;7.70;99.90
3360;DHT22;1693;49.602;11.046;2022-11-02T06:47:38;7.80;99.90
3360;DHT22;1693;49.602;11.046;2022-11-02T06:50:06;7.80;99.90
3360;DHT22;1693;49.602;11.046;2022-11-02T06:52:33;7.90;99.90
3360;DHT22;1693;49.602;11.046;2022-11-02T06:55:00;8.00;99.90
3360;DHT22;1693;49.602;11.046;2022-11-02T06:57:28;8.10;99.90
3360;DHT22;1693;49.602;11.046;2022-11-02T07:00:01;8.20;99.90
3360;DHT22;1693;49.602;11.046;2022-11-02T07:02:29;8.20;99.90
3360;DHT22;1693;49.602;11.046;2022-11-02T07:04:57;8.30;99.90
3360;DHT22;1693;49.602;11.046;2022-11-02T07:07:25;8.50;99.90
3360;DHT22;1693;49.602;11.046;2022-11-02T07:09:52;8.60;99.90
3360;DHT22;1693;49.602;11.046;2022-11-02T07:12:19;8.70;99.90
3360;DHT22;1693;49.602;11.046;2022-11-02T07:14:47;8.90;99.90
3360;DHT22;1693;49.602;11.046;2022-11-02T07:17:15;9.00;99.90
3360;DHT22;1693;49.602;11.046;2022-11-02T07:19:42;9.10;99.90
3360;DHT22;1693;49.602;11.046;2022-11-02T07:22:10;9.10;99.90
3360;DHT22;1693;49.602;11.046;2022-11-02T07:24:37;9.00;99.90
3360;DHT22;1693;49.602;11.046;2022-11-02T07:27:04;9.20;99.90
3360;DHT22;1693;49.602;11.046;2022-11-02T07:29:31;9.30;99.90
3360;DHT22;1693;49.602;11.046;2022-11-02T07:31:58;9.50;99.90
3360;DHT22;1693;49.602;11.046;2022-11-02T07:34:26;9.60;99.90
3360;DHT22;1693;49.602;11.046;2022-11-02T07:36:54;9.80;99.90
3360;DHT22;1693;49.602;11.046;2022-11-02T07:39:23;10.00;99.90
3360;DHT22;1693;49.602;11.046;2022-11-02T07:41:50;10.20;99.90
3360;DHT22;1693;49.602;11.046;2022-11-02T07:44:18;10.30;99.90
3360;DHT22;1693;49.602;11.046;2022-11-02T07:46:45;10.30;99.90
3360;DHT22;1693;49.602;11.046;2022-11-02T07:49:12;10.40;99.90
3360;DHT22;1693;49.602;11.046;2022-11-02T07:51:39;10.70;99.90
3360;DHT22;1693;49.602;11.046;2022-11-02T07:54:06;10.80;99.90
3360;DHT22;1693;49.602;11.046;2022-11-02T07:56:35;11.20;99.90
3360;DHT22;1693;49.602;11.046;2022-11-02T07:59:02;11.60;99.90
3360;DHT22;1693;49.602;11.046;2022-11-02T08:01:29;11.70;99.90
3360;DHT22;1693;49.602;11.046;2022-11-02T08:03:57;11.70;99.90
3360;DHT22;1693;49.602;11.046;2022-11-02T08:06:24;11.90;99.90
3360;DHT22;1693;49.602;11.046;2022-11-02T08:08:51;12.20;99.90
3360;DHT22;1693;49.602;11.046;2022-11-02T08:11:18;12.30;99.90
3360;DHT22;1693;49.602;11.046;2022-11-02T08:13:47;12.50;99.90
3360;DHT22;1693;49.602;11.046;2022-11-02T08:16:14;12.40;99.90
3360;DHT22;1693;49.602;11.046;2022-11-02T08:18:41;12.50;99.90
3360;DHT22;1693;49.602;11.046;2022-11-02T08:21:08;12.50;99.90
3360;DHT22;1693;49.602;11.046;2022-11-02T08:23:35;12.70;99.90
3360;DHT22;1693;49.602;11.046;2022-11-02T08:26:02;12.70;99.90
3360;DHT22;1693;49.602;11.046;2022-11-02T08:28:31;12.70;99.90
3360;DHT22;1693;49.602;11.046;2022-11-02T08:31:02;12.70;99.90
3360;DHT22;1693;49.602;11.046;2022-11-02T08:33:29;12.80;99.90
3360;DHT22;1693;49.602;11.046;2022-11-02T08:36:00;12.90;99.90
3360;DHT22;1693;49.602;11.046;2022-11-02T08:38:29;12.90;99.90
3360;DHT22;1693;49.602;11.046;2022-11-02T08:40:56;12.90;99.90
3360;DHT22;1693;49.602;11.046;2022-11-02T08:43:23;12.90;99.90
3360;DHT22;1693;49.602;11.046;2022-11-02T08:45:51;12.80;99.90
3360;DHT22;1693;49.602;11.046;2022-11-02T08:48:19;12.80;99.90
3360;DHT22;1693;49.602;11.046;2022-11-02T08:50:47;12.60;99.90
3360;DHT22;1693;49.602;11.046;2022-11-02T08:53:15;12.60;99.90
3360;DHT22;1693;49.602;11.046;2022-11-02T08:55:42;12.70;99.90
3360;DHT22;1693;49.602;11.046;2022-11-02T08:58:10;12.80;99.90
3360;DHT22;1693;49.602;11.046;2022-11-02T09:00:37;12.80;99.90
3360;DHT22;1693;49.602;11.046;2022-11-02T09:03:06;12.90;99.90
3360;DHT22;1693;49.602;11.046;2022-11-02T09:05:38;12.80;99.90
3360;DHT22;1693;49.602;11.046;2022-11-02T09:08:08;12.80;99.90
3360;DHT22;1693;49.602;11.046;2022-11-02T09:10:38;12.70;99.90
3360;DHT22;1693;49.602;11.046;2022-11-02T09:13:08;12.70;99.90
3360;DHT22;1693;49.602;11.046;2022-11-02T09:15:38;12.60;99.90
3360;DHT22;1693;49.602;11.046;2022-11-02T09:18:07;12.70;99.90
3360;DHT22;1693;49.602;11.046;2022-11-02T09:20:35;12.70;99.90
3360;DHT22;1693;49.602;11.046;2022-11-02T09:23:03;12.90;99.90
3360;DHT22;1693;49.602;11.046;2022-11-02T09:25:31;13.00;99.90
3360;DHT22;1693;49.602;11.046;2022-11-02T09:27:59;12.90;99.90
3360;DHT22;1693;49.602;11.046;2022-11-02T09:30:28;13.30;99.90
3360;DHT22;1693;49.602;11.046;2022-11-02T09:32:58;13.70;99.90
3360;DHT22;1693;49.602;11.046;2022-11-02T09:35:26;14.00;99.90
3360;DHT22;1693;49.602;11.046;2022-11-02T09:37:56;14.10;99.90
3360;DHT22;1693;49.602;11.046;2022-11-02T09:40:26;14.20;99.90
3360;DHT22;1693;49.602;11.046;2022-11-02T09:43:04;14.30;99.90
3360;DHT22;1693;49.602;11.046;2022-11-02T09:45:38;14.60;99.90
3360;DHT22;1693;49.602;11.046;2022-11-02T09:48:11;14.80;99.90
3360;DHT22;1693;49.602;11.046;2022-11-02T09:50:44;14.70;99.90
3360;DHT22;1693;49.602;11.046;2022-11-02T09:53:17;14.60;99.90
3360;DHT22;1693;49.602;11.046;2022-11-02T09:55:51;14.50;99.90
3360;DHT22;1693;49.602;11.046;2022-11-02T09:58:24;14.50;99.90
3360;DHT22;1693;49.602;11.046;2022-11-02T10:01:00;14.60;99.90
3360;DHT22;1693;49.602;11.046;2022-11-02T10:03:46;14.70;99.90
3360;DHT22;1693;49.602;11.046;2022-11-02T10:06:19;14.60;99.90
3360;DHT22;1693;49.602;11.046;2022-11-02T10:08:56;14.70;99.90
3360;DHT22;1693;49.602;11.046;2022-11-02T10:11:41;14.70;99.90
3360;DHT22;1693;49.602;11.046;2022-11-02T10:14:14;14.70;99.90
3360;DHT22;1693;49.602;11.046;2022-11-02T10:16:49;14.80;99.90
3360;DHT22;1693;49.602;11.046;2022-11-02T10:19:22;14.80;99.90
3360;DHT22;1693;49.602;11.046;2022-11-02T10:21:53;14.50;99.90
3360;DHT22;1693;49.602;11.046;2022-11-02T10:24:28;14.40;99.90
3360;DHT22;1693;49.602;11.046;2022-11-02T10:27:00;14.30;99.90
3360;DHT22;1693;49.602;11.046;2022-11-02T10:29:42;14.30;99.90
3360;DHT22;1693;49.602;11.046;2022-11-02T10:32:12;14.50;99.90
3360;DHT22;1693;49.602;11.046;2022-11-02T10:34:42;14.60;99.90
3360;DHT22;1693;49.602;11.046;2022-11-02T10:37:22;14.50;99.90
3360;DHT22;1693;49.602;11.046;2022-11-02T10:39:59;14.50;99.90
3360;DHT22;1693;49.602;11.046;2022-11-02T10:42:50;14.40;99.90
3360;DHT22;1693;49.602;11.046;2022-11-02T10:48:36;14.20;99.90
3360;DHT22;1693;49.602;11.046;2022-11-02T10:51:08;14.20;99.90
3360;DHT22;1693;49.602;11.046;2022-11-02T10:53:41;14.30;99.90
3360;DHT22;1693;49.602;11.046;2022-11-02T10:56:20;14.40;99.90
3360;DHT22;1693;49.602;11.046;2022-11-02T10:58:58;14.60;99.90
3360;DHT22;1693;49.602;11.046;2022-11-02T11:01:28;14.60;99.90
3360;DHT22;1693;49.602;11.046;2022-11-02T11:03:58;14.60;99.90
3360;DHT22;1693;49.602;11.046;2022-11-02T11:06:29;14.80;99.90
3360;DHT22;1693;49.602;11.046;2022-11-02T11:09:02;15.10;99.90
3360;DHT22;1693;49.602;11.046;2022-11-02T11:11:33;15.20;99.90
3360;DHT22;1693;49.602;11.046;2022-11-02T11:14:03;15.20;99.90
3360;DHT22;1693;49.602;11.046;2022-11-02T11:16:38;15.40;99.90
3360;DHT22;1693;49.602;11.046;2022-11-02T11:19:21;15.90;99.90
3360;DHT22;1693;49.602;11.046;2022-11-02T11:21:50;16.30;99.90
3360;DHT22;1693;49.602;11.046;2022-11-02T11:24:24;16.60;99.90
3360;DHT22;1693;49.602;11.046;2022-11-02T11:27:15;16.40;99.90
3360;DHT22;1693;49.602;11.046;2022-11-02T11:29:50;16.30;99.90
3360;DHT22;1693;49.602;11.046;2022-11-02T11:32:20;16.50;99.90
3360;DHT22;1693;49.602;11.046;2022-11-02T11:34:55;16.70;99.90
3360;DHT22;1693;49.602;11.046;2022-11-02T11:37:24;16.50;99.90
3360;DHT22;1693;49.602;11.046;2022-11-02T11:39:56;16.70;99.90
3360;DHT22;1693;49.602;11.046;2022-11-02T11:42:27;16.20;99.90
3360;DHT22;1693;49.602;11.046;2022-11-02T11:44:58;16.10;99.90
3360;DHT22;1693;49.602;11.046;2022-11-02T11:47:34;15.70;99.90
3360;DHT22;1693;49.602;11.046;2022-11-02T11:50:05;15.70;99.90
3360;DHT22;1693;49.602;11.046;2022-11-02T11:52:35;16.00;99.90
3360;DHT22;1693;49.602;11.046;2022-11-02T11:55:21;15.60;99.90
3360;DHT22;1693;49.602;11.046;2022-11-02T11:58:13;15.40;99.90
3360;DHT22;1693;49.602;11.046;2022-11-02T12:00:41;15.10;99.90
3360;DHT22;1693;49.602;11.046;2022-11-02T12:03:11;15.20;99.90
3360;DHT22;1693;49.602;11.046;2022-11-02T12:05:49;15.70;99.90
3360;DHT22;1693;49.602;11.046;2022-11-02T12:08:41;16.60;99.90
3360;DHT22;1693;49.602;11.046;2022-11-02T12:11:21;17.50;99.90
3360;DHT22;1693;49.602;11.046;2022-11-02T12:14:10;18.40;99.90
3360;DHT22;1693;49.602;11.046;2022-11-02T12:16:54;18.90;99.90
3360;DHT22;1693;49.602;11.046;2022-11-02T12:19:31;18.30;99.90
3360;DHT22;1693;49.602;11.046;2022-11-02T12:22:10;17.80;99.90
3360;DHT22;1693;49.602;11.046;2022-11-02T12:24:58;17.90;99.90
3360;DHT22;1693;49.602;11.046;2022-11-02T12:27:34;18.60;99.90
3360;DHT22;1693;49.602;11.046;2022-11-02T12:30:16;17.40;99.90
3360;DHT22;1693;49.602;11.046;2022-11-02T12:33:15;16.30;99.90
3360;DHT22;1693;49.602;11.046;2022-11-02T12:36:06;15.90;99.90
3360;DHT22;1693;49.602;11.046;2022-11-02T12:38:51;15.60;99.90
3360;DHT22;1693;49.602;11.046;2022-11-02T12:44:24;15.50;99.90
3360;DHT22;1693;49.602;11.046;2022-11-02T12:47:08;15.30;99.90
3360;DHT22;1693;49.602;11.046;2022-11-02T12:49:45;15.10;99.90
3360;DHT22;1693;49.602;11.046;2022-11-02T12:52:22;15.60;99.90
3360;DHT22;1693;49.602;11.046;2022-11-02T12:54:56;15.90;99.90
3360;DHT22;1693;49.602;11.046;2022-11-02T12:57:30;16.10;99.90
3360;DHT22;1693;49.602;11.046;2022-11-02T13:00:07;17.20;99.90
3360;DHT22;1693;49.602;11.046;2022-11-02T13:02:56;17.80;99.90
3360;DHT22;1693;49.602;11.046;2022-11-02T13:05:33;18.90;99.90
3360;DHT22;1693;49.602;11.046;2022-11-02T13:08:08;19.40;99.90
3360;DHT22;1693;49.602;11.046;2022-11-02T13:10:41;19.80;98.00
3360;DHT22;1693;49.602;11.046;2022-11-02T13:13:14;20.00;97.50
3360;DHT22;1693;49.602;11.046;2022-11-02T13:15:44;19.80;96.10
3360;DHT22;1693;49.602;11.046;2022-11-02T13:18:24;20.10;96.10
3360;DHT22;1693;49.602;11.046;2022-11-02T13:20:56;20.20;94.90
3360;DHT22;1693;49.602;11.046;2022-11-02T13:23:32;20.10;94.90
3360;DHT22;1693;49.602;11.046;2022-11-02T13:26:03;20.10;93.80
3360;DHT22;1693;49.602;11.046;2022-11-02T13:28:40;19.90;94.00
3360;DHT22;1693;49.602;11.046;2022-11-02T13:31:13;20.10;93.10
3360;DHT22;1693;49.602;11.046;2022-11-02T13:33:47;19.90;92.90
3360;DHT22;1693;49.602;11.046;2022-11-02T13:36:15;19.90;92.30
3360;DHT22;1693;49.602;11.046;2022-11-02T13:38:45;20.20;92.60
3360;DHT22;1693;49.602;11.046;2022-11-02T13:41:28;20.50;91.30
3360;DHT22;1693;49.602;11.046;2022-11-02T13:44:33;20.50;91.60
3360;DHT22;1693;49.602;11.046;2022-11-02T13:47:25;20.40;91.00
3360;DHT22;1693;49.602;11.046;2022-11-02T13:50:18;19.90;91.30
3360;DHT22;1693;49.602;11.046;2022-11-02T13:52:49;19.80;91.70
3360;DHT22;1693;49.602;11.046;2022-11-02T13:55:20;19.80;92.00
3360;DHT22;1693;49.602;11.046;2022-11-02T13:57:53;20.10;91.40
3360;DHT22;1693;49.602;11.046;2022-11-02T14:00:34;20.10;90.80
3360;DHT22;1693;49.602;11.046;2022-11-02T14:03:10;20.10;90.40
3360;DHT22;1693;49.602;11.046;2022-11-02T14:05:45;20.10;90.80
3360;DHT22;1693;49.602;11.046;2022-11-02T14:08:20;20.10;90.50
3360;DHT22;1693;49.602;11.046;2022-11-02T14:11:20;20.60;89.10
3360;DHT22;1693;49.602;11.046;2022-11-02T14:14:14;20.60;87.60
3360;DHT22;1693;49.602;11.046;2022-11-02T14:16:45;20.70;86.70
3360;DHT22;1693;49.602;11.046;2022-11-02T14:19:29;20.30;85.30
3360;DHT22;1693;49.602;11.046;2022-11-02T14:22:11;20.10;86.50
3360;DHT22;1693;49.602;11.046;2022-11-02T14:25:12;20.20;86.90
3360;DHT22;1693;49.602;11.046;2022-11-02T14:27:40;20.50;86.10
3360;DHT22;1693;49.602;11.046;2022-11-02T14:30:42;21.00;85.70
3360;DHT22;1693;49.602;11.046;2022-11-02T14:33:32;20.60;83.70
3360;DHT22;1693;49.602;11.046;2022-11-02T14:36:10;20.20;85.70
3360;DHT22;1693;49.602;11.046;2022-11-02T14:38:58;19.70;87.50
3360;DHT22;1693;49.602;11.046;2022-11-02T14:41:49;18.90;89.00
3360;DHT22;1693;49.602;11.046;2022-11-02T14:52:33;16.70;93.70
3360;DHT22;1693;49.602;11.046;2022-11-02T14:57:38;16.10;95.10
3360;DHT22;1693;49.602;11.046;2022-11-02T15:00:18;15.90;95.90
3360;DHT22;1693;49.602;11.046;2022-11-02T15:02:48;15.50;96.80
3360;DHT22;1693;49.602;11.046;2022-11-02T15:05:22;15.30;97.40
3360;DHT22;1693;49.602;11.046;2022-11-02T15:10:41;15.00;98.70
3360;DHT22;1693;49.602;11.046;2022-11-02T15:13:32;14.70;99.80
3360;DHT22;1693;49.602;11.046;2022-11-02T15:16:38;14.50;99.90
3360;DHT22;1693;49.602;11.046;2022-11-02T15:19:37;14.40;99.90
3360;DHT22;1693;49.602;11.046;2022-11-02T15:22:31;14.20;99.90
3360;DHT22;1693;49.602;11.046;2022-11-02T15:25:05;14.00;99.90
3360;DHT22;1693;49.602;11.046;2022-11-02T15:27:43;13.90;99.90
3360;DHT22;1693;49.602;11.046;2022-11-02T15:30:13;13.80;99.90
3360;DHT22;1693;49.602;11.046;2022-11-02T15:32:45;13.80;99.90
3360;DHT22;1693;49.602;11.046;2022-11-02T15:35:17;13.70;99.90
3360;DHT22;1693;49.602;11.046;2022-11-02T15:37:47;13.60;99.90
3360;DHT22;1693;49.602;11.046;2022-11-02T15:40:19;13.60;99.90
3360;DHT22;1693;49.602;11.046;2022-11-02T15:43:01;13.40;99.90
3360;DHT22;1693;49.602;11.046;2022-11-02T15:45:54;13.40;99.90
3360;DHT22;1693;49.602;11.046;2022-11-02T15:48:50;13.30;99.90
3360;DHT22;1693;49.602;11.046;2022-11-02T15:51:27;13.10;99.90
3360;DHT22;1693;49.602;11.046;2022-11-02T15:54:19;12.90;99.90
3360;DHT22;1693;49.602;11.046;2022-11-02T15:56:59;12.70;99.90
3360;DHT22;1693;49.602;11.046;2022-11-02T16:00:02;12.50;99.90
3360;DHT22;1693;49.602;11.046;2022-11-02T16:02:37;12.20;99.90
3360;DHT22;1693;49.602;11.046;2022-11-02T16:05:06;12.00;99.90
3360;DHT22;1693;49.602;11.046;2022-11-02T16:07:36;11.80;99.90
3360;DHT22;1693;49.602;11.046;2022-11-02T16:10:19;11.50;99.90
3360;DHT22;1693;49.602;11.046;2022-11-02T16:13:00;11.30;99.90
3360;DHT22;1693;49.602;11.046;2022-11-02T16:15:30;11.10;99.90
3360;DHT22;1693;49.602;11.046;2022-11-02T16:17:58;10.80;99.90
3360;DHT22;1693;49.602;11.046;2022-11-02T16:20:28;10.70;99.90
3360;DHT22;1693;49.602;11.046;2022-11-02T16:22:59;10.60;99.90
3360;DHT22;1693;49.602;11.046;2022-11-02T16:25:33;10.40;99.90
3360;DHT22;1693;49.602;11.046;2022-11-02T16:28:12;10.30;99.90
3360;DHT22;1693;49.602;11.046;2022-11-02T16:31:00;10.10;99.90
3360;DHT22;1693;49.602;11.046;2022-11-02T16:33:39;10.00;99.90
3360;DHT22;1693;49.602;11.046;2022-11-02T16:36:10;9.90;99.90
3360;DHT22;1693;49.602;11.046;2022-11-02T16:38:45;9.70;99.90
3360;DHT22;1693;49.602;11.046;2022-11-02T16:41:15;9.50;99.90
3360;DHT22;1693;49.602;11.046;2022-11-02T16:43:45;9.40;99.90
3360;DHT22;1693;49.602;11.046;2022-11-02T16:46:29;9.40;99.90
3360;DHT22;1693;49.602;11.046;2022-11-02T16:49:12;9.30;99.90
3360;DHT22;1693;49.602;11.046;2022-11-02T16:51:47;9.30;99.90